createdAt,value
2023-03-16T00:01:42.591Z,22.83
2023-03-16T00:04:29.916Z,21.47
2023-03-16T00:07:06.323Z,21.30
2023-03-16T00:09:45.985Z,19.23
2023-03-16T00:12:23.046Z,26.40
2023-03-16T00:18:04.797Z,18.08
2023-03-16T00:20:42.925Z,22.15
2023-03-16T00:23:24.055Z,20.80
2023-03-16T00:28:58.834Z,18.80
2023-03-16T00:31:47.769Z,22.33
2023-03-16T00:34:36.045Z,23.05
2023-03-16T00:40:09.474Z,19.40
2023-03-16T00:42:56.311Z,22.95
2023-03-16T00:45:33.664Z,20.75
2023-03-16T00:48:17.431Z,19.25
2023-03-16T00:51:08.238Z,19.13
2023-03-16T00:53:48.585Z,18.58
2023-03-16T00:56:26.442Z,20.50
2023-03-16T00:59:03.389Z,17.52
2023-03-16T01:01:46.580Z,24.60
2023-03-16T01:04:25.675Z,22.05
2023-03-16T01:07:07.745Z,26.52
2023-03-16T01:09:45.515Z,21.95
2023-03-16T01:12:23.815Z,21.60
2023-03-16T01:15:02.621Z,22.43
2023-03-16T01:17:44.706Z,20.65
2023-03-16T01:20:24.208Z,24.73
2023-03-16T01:22:59.620Z,18.70
2023-03-16T01:25:41.486Z,18.42
2023-03-16T01:28:25.067Z,20.40
2023-03-16T01:31:04.203Z,21.08
2023-03-16T01:33:41.543Z,17.92
2023-03-16T01:36:21.708Z,17.23
2023-03-16T01:39:13.078Z,20.35
2023-03-16T01:42:00.358Z,23.80
2023-03-16T01:44:55.869Z,20.60
2023-03-16T01:47:38.589Z,20.60
2023-03-16T01:50:23.038Z,17.25
2023-03-16T01:53:00.388Z,20.95
2023-03-16T01:55:38.014Z,16.83
2023-03-16T01:58:19.845Z,19.50
2023-03-16T02:00:58.329Z,18.90
2023-03-16T02:03:37.415Z,20.15
2023-03-16T02:06:25.787Z,20.40
2023-03-16T02:09:04.529Z,16.65
2023-03-16T02:14:25.132Z,18.65
2023-03-16T02:17:02.421Z,18.02
2023-03-16T02:19:37.241Z,20.75
2023-03-16T02:22:14.259Z,16.15
2023-03-16T02:24:51.899Z,18.80
2023-03-16T02:27:30.170Z,24.00
2023-03-16T02:30:12.233Z,16.70
2023-03-16T02:32:57.433Z,15.77
2023-03-16T02:35:35.898Z,15.87
2023-03-16T02:38:13.284Z,16.87
2023-03-16T02:41:01.956Z,15.63
2023-03-16T02:43:41.784Z,18.73
2023-03-16T02:46:43.792Z,18.65
2023-03-16T02:49:18.910Z,17.17
2023-03-16T02:52:04.255Z,15.45
2023-03-16T02:54:39.654Z,15.33
2023-03-16T02:57:15.954Z,16.63
2023-03-16T02:59:53.172Z,14.95
2023-03-16T03:02:33.374Z,17.42
2023-03-16T03:05:12.020Z,15.55
2023-03-16T03:07:47.646Z,16.80
2023-03-16T03:10:42.088Z,18.25
2023-03-16T03:13:16.594Z,21.13
2023-03-16T03:15:53.777Z,17.05
2023-03-16T03:18:36.654Z,13.10
2023-03-16T03:24:12.991Z,15.63
2023-03-16T03:26:48.525Z,14.23
2023-03-16T03:29:34.699Z,18.35
2023-03-16T03:32:12.335Z,12.90
2023-03-16T03:34:48.491Z,16.02
2023-03-16T03:37:29.492Z,14.10
2023-03-16T03:40:08.465Z,16.45
2023-03-16T03:42:44.675Z,14.18
2023-03-16T03:45:21.238Z,14.97
2023-03-16T03:47:56.836Z,12.25
2023-03-16T03:50:33.436Z,13.10
2023-03-16T03:53:29.684Z,14.00
2023-03-16T03:56:28.449Z,17.00
2023-03-16T03:59:05.499Z,12.63
2023-03-16T04:02:01.615Z,14.50
2023-03-16T04:04:46.869Z,14.23
2023-03-16T04:10:07.259Z,13.48
2023-03-16T04:15:24.537Z,19.77
2023-03-16T04:18:24.039Z,15.57
2023-03-16T04:20:59.652Z,13.90
2023-03-16T04:23:40.120Z,15.10
2023-03-16T04:26:18.659Z,12.95
2023-03-16T04:28:57.293Z,15.30
2023-03-16T04:31:37.396Z,15.95
2023-03-16T04:34:14.517Z,13.50
2023-03-16T04:36:51.102Z,13.10
2023-03-16T04:39:29.600Z,11.25
2023-03-16T04:42:07.910Z,11.85
2023-03-16T04:44:44.679Z,14.15
2023-03-16T04:47:24.788Z,10.70
2023-03-16T04:50:00.818Z,8.23
2023-03-16T04:52:37.959Z,13.68
2023-03-16T04:55:15.368Z,10.95
2023-03-16T04:57:54.342Z,12.90
2023-03-16T05:00:34.986Z,16.10
2023-03-16T05:03:16.417Z,14.75
2023-03-16T05:05:52.138Z,17.13
2023-03-16T05:11:08.522Z,15.43
2023-03-16T05:13:52.877Z,19.80
2023-03-16T05:16:29.912Z,14.02
2023-03-16T05:19:06.393Z,18.23
2023-03-16T05:21:43.594Z,16.15
2023-03-16T05:24:19.809Z,19.05
2023-03-16T05:27:03.700Z,17.80
2023-03-16T05:29:46.371Z,19.63
2023-03-16T05:32:20.733Z,17.50
2023-03-16T05:34:59.378Z,12.50
2023-03-16T05:37:42.188Z,13.93
2023-03-16T05:40:25.466Z,14.95
2023-03-16T05:43:10.613Z,14.60
2023-03-16T05:45:57.379Z,16.20
2023-03-16T05:48:36.110Z,16.33
2023-03-16T05:51:14.563Z,13.07
2023-03-16T05:53:52.724Z,16.00
2023-03-16T05:56:38.056Z,16.10
2023-03-16T05:59:21.159Z,15.05
2023-03-16T06:02:06.818Z,14.98
2023-03-16T06:04:43.095Z,17.23
2023-03-16T06:20:14.790Z,9.60
2023-03-16T06:22:54.982Z,14.20
2023-03-16T06:25:32.658Z,10.83
2023-03-16T06:28:11.601Z,11.50
2023-03-16T06:30:50.577Z,9.55
2023-03-16T06:33:27.254Z,8.55
2023-03-16T06:36:04.880Z,13.13
2023-03-16T06:38:45.869Z,9.02
2023-03-16T06:41:54.296Z,13.37
2023-03-16T06:44:30.215Z,7.30
2023-03-16T06:47:18.356Z,7.18
2023-03-16T06:49:55.799Z,7.75
2023-03-16T06:52:36.892Z,7.30
2023-03-16T06:55:14.777Z,7.75
2023-03-16T06:57:55.267Z,8.60
2023-03-16T07:00:31.746Z,10.13
2023-03-16T07:03:08.916Z,8.75
2023-03-16T07:05:49.071Z,7.38
2023-03-16T07:08:30.818Z,7.43
2023-03-16T07:11:07.068Z,9.65
2023-03-16T07:13:44.775Z,6.95
2023-03-16T07:16:23.454Z,9.50
2023-03-16T07:18:59.814Z,10.37
2023-03-16T07:21:40.255Z,8.75
2023-03-16T07:24:25.000Z,6.28
2023-03-16T07:27:02.187Z,8.93
2023-03-16T07:29:43.276Z,7.18
2023-03-16T07:32:18.872Z,9.02
2023-03-16T07:35:02.959Z,9.53
2023-03-16T07:37:42.717Z,7.47
2023-03-16T07:40:25.140Z,9.55
2023-03-16T07:43:05.577Z,7.15
2023-03-16T07:45:53.134Z,10.80
2023-03-16T07:48:30.803Z,8.25
2023-03-16T07:51:08.964Z,8.00
2023-03-16T07:53:45.052Z,9.65
2023-03-16T07:56:42.302Z,11.40
2023-03-16T07:59:36.433Z,5.28
2023-03-16T08:02:10.861Z,6.10
2023-03-16T08:04:49.833Z,7.38
2023-03-16T08:07:30.155Z,8.27
2023-03-16T08:10:16.087Z,7.15
2023-03-16T08:13:15.419Z,9.57
2023-03-16T08:15:58.920Z,7.60
2023-03-16T08:18:47.857Z,10.23
2023-03-16T08:21:31.593Z,10.23
2023-03-16T08:24:12.174Z,8.75
2023-03-16T09:51:01.820Z,7.60
2023-03-16T09:53:38.602Z,7.60
2023-03-16T09:56:17.677Z,4.93
2023-03-16T09:58:53.224Z,3.90
2023-03-16T10:01:36.370Z,5.40
2023-03-16T10:04:17.555Z,5.00
2023-03-16T10:07:04.104Z,6.57
2023-03-16T10:09:45.465Z,6.37
2023-03-16T10:21:41.266Z,8.70
2023-03-16T10:24:52.864Z,6.60
2023-03-16T10:27:28.972Z,5.00
2023-03-16T10:36:06.575Z,7.25
2023-03-16T10:38:48.817Z,5.28
2023-03-16T10:41:41.675Z,4.90
2023-03-16T10:47:09.483Z,5.50
2023-03-16T10:49:51.323Z,6.90
2023-03-16T10:58:30.975Z,7.23
2023-03-16T11:01:15.019Z,5.35
2023-03-16T11:06:52.873Z,4.45
2023-03-16T11:09:41.107Z,5.82
2023-03-16T11:12:25.741Z,5.85
2023-03-16T11:18:03.076Z,6.33
2023-03-16T11:23:29.303Z,6.13
2023-03-16T11:26:02.808Z,6.80
2023-03-16T11:28:42.141Z,5.40
2023-03-16T11:31:15.151Z,7.25
2023-03-16T11:33:59.999Z,5.00
2023-03-16T11:36:42.043Z,4.43
2023-03-16T11:39:21.018Z,7.57
2023-03-16T11:42:02.784Z,5.60
2023-03-16T11:44:40.936Z,3.33
2023-03-16T11:47:41.641Z,4.78
2023-03-16T11:50:18.911Z,3.15
2023-03-16T11:53:01.441Z,3.25
2023-03-16T11:55:39.487Z,3.72
2023-03-16T11:58:22.959Z,3.83
2023-03-16T12:00:58.331Z,5.47
2023-03-16T12:04:12.475Z,8.15
2023-03-16T12:06:58.147Z,6.85
2023-03-16T12:10:14.606Z,5.40
2023-03-16T12:12:57.337Z,3.90
2023-03-16T12:15:39.968Z,6.78
2023-03-16T12:18:21.920Z,5.40
2023-03-16T12:20:59.769Z,4.87
2023-03-16T12:23:36.332Z,5.72
2023-03-16T12:26:15.153Z,2.17
2023-03-16T12:28:51.854Z,3.90
2023-03-16T12:31:26.104Z,6.33
2023-03-16T12:34:19.349Z,6.17
2023-03-16T12:37:20.585Z,4.53
2023-03-16T12:40:09.604Z,4.15
2023-03-16T12:42:43.040Z,4.80
2023-03-16T12:45:22.248Z,4.72
2023-03-16T12:48:01.553Z,5.35
2023-03-16T12:50:40.120Z,6.25
2023-03-16T12:53:14.119Z,3.30
2023-03-16T12:55:48.425Z,5.50
2023-03-16T12:58:29.055Z,4.20
2023-03-16T13:01:08.024Z,14.65
2023-03-16T13:03:41.467Z,4.07
2023-03-16T13:06:22.332Z,3.20
2023-03-16T13:09:00.086Z,4.75
2023-03-16T13:11:46.448Z,6.10
2023-03-16T13:14:20.622Z,5.95
2023-03-16T13:16:58.042Z,4.90
2023-03-16T13:19:38.036Z,5.78
2023-03-16T13:22:24.438Z,3.67
2023-03-16T13:24:57.928Z,3.95
2023-03-16T13:27:33.798Z,4.05
2023-03-16T13:30:23.939Z,2.38
2023-03-16T13:33:11.588Z,4.17
2023-03-16T13:35:45.661Z,3.80
2023-03-16T13:38:27.649Z,6.80
2023-03-16T13:41:02.836Z,3.33
2023-03-16T13:43:38.323Z,6.13
2023-03-16T13:46:19.539Z,5.20
2023-03-16T13:48:56.903Z,4.13
2023-03-16T13:51:32.334Z,4.40
2023-03-16T13:54:19.917Z,5.00
2023-03-16T13:56:55.267Z,3.03
2023-03-16T13:59:30.473Z,4.63
2023-03-16T14:02:05.977Z,2.00
2023-03-16T14:04:45.243Z,5.53
2023-03-16T14:07:25.000Z,4.63
2023-03-16T14:09:59.531Z,4.03
2023-03-16T14:12:37.582Z,3.65
2023-03-16T14:15:20.025Z,3.53
2023-03-16T14:18:09.880Z,3.60
2023-03-16T14:20:49.008Z,6.07
2023-03-16T14:23:24.966Z,9.07
2023-03-16T14:25:59.815Z,2.90
2023-03-16T14:28:36.806Z,3.65
2023-03-16T14:31:14.029Z,3.40
2023-03-16T14:34:02.749Z,5.45
2023-03-16T14:36:45.448Z,5.30
2023-03-16T14:39:23.420Z,5.65
2023-03-16T14:41:58.100Z,4.60
2023-03-16T14:44:37.852Z,6.60
2023-03-16T14:47:16.432Z,4.60
2023-03-16T14:49:51.570Z,4.55
2023-03-16T14:52:32.275Z,4.97
2023-03-16T14:55:15.100Z,4.53
2023-03-16T14:57:55.007Z,2.78
2023-03-16T15:00:27.295Z,6.13
2023-03-16T15:03:07.051Z,9.02
2023-03-16T15:05:43.759Z,8.35
2023-03-16T15:08:26.654Z,4.10
2023-03-16T15:11:02.253Z,4.03
2023-03-16T15:14:04.615Z,5.10
2023-03-16T15:16:38.276Z,6.70
2023-03-16T15:19:15.184Z,3.87
2023-03-16T15:21:51.403Z,7.50
2023-03-16T15:24:32.432Z,3.13
2023-03-16T15:27:10.280Z,6.05
2023-03-16T15:29:44.612Z,5.60
2023-03-16T15:32:22.267Z,5.45
2023-03-16T15:35:00.418Z,4.60
2023-03-16T15:37:36.976Z,3.92
2023-03-16T15:40:22.836Z,5.95
2023-03-16T15:42:58.296Z,10.20
2023-03-16T15:45:36.665Z,20.67
2023-03-16T15:48:15.391Z,6.60
2023-03-16T15:50:50.227Z,6.75
2023-03-16T15:53:33.082Z,2.73
2023-03-16T15:56:14.964Z,6.65
2023-03-16T15:58:51.174Z,3.60
2023-03-16T16:01:25.711Z,4.93
2023-03-16T16:04:03.843Z,4.40
2023-03-16T16:06:50.448Z,7.60
2023-03-16T16:09:51.805Z,6.45
2023-03-16T16:12:52.941Z,6.03
2023-03-16T16:15:30.452Z,5.60
2023-03-16T16:18:21.985Z,4.13
2023-03-16T16:21:04.987Z,6.38
2023-03-16T16:23:40.689Z,8.27
2023-03-16T16:26:26.283Z,5.32
2023-03-16T16:29:09.153Z,3.50
2023-03-16T16:31:45.750Z,5.60
2023-03-16T16:34:24.337Z,7.63
2023-03-16T16:37:04.509Z,5.10
2023-03-16T16:39:37.654Z,4.63
2023-03-16T16:42:18.995Z,4.72
2023-03-16T16:44:56.722Z,10.25
2023-03-16T16:47:30.620Z,3.92
2023-03-16T16:50:06.428Z,7.03
2023-03-16T16:52:50.323Z,5.70
2023-03-16T16:55:24.020Z,6.00
2023-03-16T16:58:00.403Z,3.47
2023-03-16T17:00:42.773Z,3.20
2023-03-16T17:03:18.606Z,6.25
2023-03-16T17:05:55.712Z,9.67
2023-03-16T17:08:31.364Z,4.05
2023-03-16T17:11:16.892Z,6.15
2023-03-16T17:13:51.004Z,3.60
2023-03-16T17:16:33.642Z,6.33
2023-03-16T17:19:10.641Z,5.82
2023-03-16T17:21:46.859Z,8.57
2023-03-16T17:24:23.565Z,12.50
2023-03-16T17:27:00.164Z,13.57
2023-03-16T17:29:34.672Z,17.75
2023-03-16T17:32:23.250Z,20.00
2023-03-16T17:34:58.672Z,18.65
2023-03-16T17:37:34.571Z,18.10
2023-03-16T17:40:09.221Z,20.60
2023-03-16T17:42:43.284Z,15.80
2023-03-16T17:45:21.950Z,15.35
2023-03-16T17:48:02.738Z,18.35
2023-03-16T17:50:38.751Z,30.33
2023-03-16T17:53:14.582Z,17.38
2023-03-16T17:55:49.575Z,17.60
2023-03-16T17:58:30.081Z,25.70
2023-03-16T18:01:05.678Z,18.98
2023-03-16T18:03:50.005Z,12.10
2023-03-16T18:06:27.883Z,15.53
2023-03-16T18:09:04.118Z,25.33
2023-03-16T18:11:46.905Z,19.00
2023-03-16T18:14:28.392Z,38.53
2023-03-16T18:17:05.348Z,34.65
2023-03-16T18:19:42.547Z,45.83
2023-03-16T18:22:19.675Z,40.05
2023-03-16T18:24:54.274Z,33.43
2023-03-16T18:27:29.449Z,23.23
2023-03-16T18:30:18.108Z,15.25
2023-03-16T18:32:53.129Z,13.30
2023-03-16T18:35:33.159Z,11.50
2023-03-16T18:38:07.088Z,18.83
2023-03-16T18:40:43.372Z,15.85
2023-03-16T18:43:22.067Z,27.13
2023-03-16T18:45:56.368Z,23.85
2023-03-16T18:48:31.374Z,23.17
2023-03-16T18:51:12.833Z,21.52
2023-03-16T18:53:53.203Z,18.73
2023-03-16T18:56:30.754Z,23.80
2023-03-16T18:59:06.334Z,20.30
2023-03-16T19:01:42.017Z,29.75
2023-03-16T19:04:22.377Z,26.37
2023-03-16T19:07:01.182Z,23.13
2023-03-16T19:09:36.546Z,24.70
2023-03-16T19:12:14.050Z,35.35
2023-03-16T19:14:52.548Z,39.10
2023-03-16T19:17:34.007Z,39.90
2023-03-16T19:20:10.269Z,43.50
2023-03-16T19:25:22.211Z,35.42
2023-03-16T19:27:57.430Z,32.58
2023-03-16T19:30:32.663Z,36.53
2023-03-16T19:33:12.119Z,30.87
2023-03-16T19:35:51.735Z,38.60
2023-03-16T19:38:30.139Z,42.40
2023-03-16T19:41:06.604Z,51.80
2023-03-16T19:43:43.102Z,40.08
2023-03-16T19:46:20.315Z,34.77
2023-03-16T19:48:59.066Z,41.85
2023-03-16T19:51:36.405Z,37.20
2023-03-16T19:54:16.323Z,45.15
2023-03-16T19:56:51.441Z,40.78
2023-03-16T19:59:27.285Z,54.58
2023-03-16T20:02:07.314Z,55.88
2023-03-16T20:04:43.890Z,41.85
2023-03-16T20:07:18.743Z,44.80
2023-03-16T20:09:54.873Z,36.70
2023-03-16T20:15:07.662Z,42.07
2023-03-16T20:17:40.468Z,43.67
2023-03-16T20:20:23.903Z,43.15
2023-03-16T20:23:01.720Z,37.63
2023-03-16T20:25:37.658Z,40.05
2023-03-16T20:28:21.559Z,37.60
2023-03-16T20:30:58.340Z,43.38
2023-03-16T20:43:24.450Z,39.72
2023-03-16T20:46:16.952Z,41.95
2023-03-16T21:24:04.013Z,45.33
2023-03-16T21:26:48.472Z,49.55
2023-03-16T21:29:49.010Z,60.50
2023-03-16T21:35:23.179Z,53.95
2023-03-16T21:38:12.655Z,54.20
2023-03-16T21:40:50.578Z,55.13
2023-03-16T21:43:45.722Z,59.35
2023-03-16T21:46:42.275Z,50.00
2023-03-16T21:49:27.612Z,61.33
2023-03-16T21:54:55.102Z,59.05
2023-03-16T21:57:35.030Z,55.03
2023-03-16T22:00:18.657Z,64.67
2023-03-16T22:03:08.368Z,68.85
2023-03-16T22:05:53.332Z,81.75
2023-03-16T22:08:31.814Z,89.15
2023-03-16T22:11:12.983Z,92.18
2023-03-16T22:13:52.798Z,89.68
2023-03-16T22:19:33.262Z,127.47
2023-03-16T22:22:16.166Z,85.97
2023-03-16T22:24:57.162Z,74.97
2023-03-16T22:27:36.144Z,82.30
2023-03-16T22:30:19.080Z,77.68
2023-03-16T22:33:01.860Z,75.50
2023-03-16T22:35:50.552Z,68.93
2023-03-16T22:38:24.264Z,66.80
2023-03-16T22:41:00.671Z,71.03
2023-03-16T22:43:38.855Z,77.35
2023-03-16T22:46:19.655Z,79.53
2023-03-16T22:49:00.509Z,76.40
2023-03-16T22:51:40.185Z,77.80
2023-03-16T22:54:20.057Z,73.25
2023-03-16T22:56:58.417Z,67.40
2023-03-16T22:59:36.081Z,72.00
2023-03-16T23:02:19.454Z,74.10
2023-03-16T23:04:56.610Z,65.00
2023-03-16T23:07:33.585Z,76.10
2023-03-16T23:10:11.891Z,58.03
2023-03-16T23:12:49.643Z,68.80
2023-03-16T23:15:32.857Z,64.70
2023-03-16T23:18:08.315Z,63.40
2023-03-16T23:20:43.915Z,66.65
2023-03-16T23:23:21.522Z,65.25
2023-03-16T23:26:00.194Z,69.60
2023-03-16T23:28:38.043Z,65.00
2023-03-16T23:31:18.557Z,68.95
2023-03-16T23:33:53.893Z,61.83
2023-03-16T23:36:29.379Z,69.28
2023-03-16T23:39:07.557Z,55.92
2023-03-16T23:41:47.979Z,60.35
2023-03-16T23:44:28.946Z,59.50
2023-03-16T23:47:04.693Z,60.95
2023-03-16T23:49:43.546Z,60.42
2023-03-16T23:52:21.691Z,57.72
2023-03-16T23:55:00.560Z,52.20
2023-03-16T23:57:34.208Z,57.50
